Time;durP1;ratioP1;P1;durP2;ratioP2;P2;SDS_P1;SDS_P2;PMS_P1;PMS_P2;Temp;Humidity;BMP_temperature;BMP_pressure;BME280_temperature;BME280_humidity;BME280_pressure;Samples;Min_cycle;Max_cycle;Signal;HPM_P1;HPM_P2
2022/11/24 00:00:12;;;;;;;105.90;37.50;;;;;;;;;;106525;1312;22273;-80
2022/11/24 00:03:03;;;;;;;101.40;36.80;;;;;;;;;;106514;1312;22125;-80
2022/11/24 00:05:37;;;;;;;107.40;37.20;;;;;;;;;;106594;1312;22103;-80
2022/11/24 00:08:06;;;;;;;98.50;36.40;;;;;;;;;;106549;1312;22660;-80
2022/11/24 00:10:35;;;;;;;98.00;35.00;;;;;;;;;;106527;1312;22136;-80
2022/11/24 00:19:57;;;;;;;105.70;38.20;;;;;;;;;;100469;1337;545011;-85
2022/11/24 00:22:23;;;;;;;104.70;37.10;;;;;;;;;;102406;1320;24053;-85
2022/11/24 00:24:50;;;;;;;103.90;36.80;;;;;;;;;;102646;1316;25534;-83
2022/11/24 00:27:17;;;;;;;106.40;37.30;;;;;;;;;;102726;1317;22491;-83
2022/11/24 00:29:43;;;;;;;100.10;36.20;;;;;;;;;;102563;1311;25450;-83
2022/11/24 00:32:10;;;;;;;91.50;35.10;;;;;;;;;;102656;1320;24386;-81
2022/11/24 00:34:37;;;;;;;98.20;35.60;;;;;;;;;;101888;1316;1293526;-83
2022/11/24 00:37:04;;;;;;;97.90;36.20;;;;;;;;;;102826;1316;24317;-84
2022/11/24 00:39:30;;;;;;;99.50;37.00;;;;;;;;;;102819;1316;24247;-81
2022/11/24 00:41:57;;;;;;;99.30;37.00;;;;;;;;;;102830;1316;22439;-81
2022/11/24 00:44:24;;;;;;;93.60;35.90;;;;;;;;;;103800;1304;22706;-81
2022/11/24 00:46:51;;;;;;;96.20;36.50;;;;;;;;;;103814;1310;25534;-81
2022/11/24 00:49:18;;;;;;;105.80;36.40;;;;;;;;;;103873;1303;22508;-83
2022/11/24 00:51:45;;;;;;;105.60;37.70;;;;;;;;;;103810;1303;22472;-80
2022/11/24 00:54:12;;;;;;;97.10;36.70;;;;;;;;;;103852;1294;22848;-80
2022/11/24 00:56:38;;;;;;;102.80;37.30;;;;;;;;;;103785;1307;24201;-80
2022/11/24 00:59:05;;;;;;;99.70;36.20;;;;;;;;;;104188;1307;22454;-80
2022/11/24 01:01:31;;;;;;;103.00;37.70;;;;;;;;;;103565;1309;22462;-81
2022/11/24 01:04:02;;;;;;;99.40;38.00;;;;;;;;;;103566;1303;25450;-79
2022/11/24 01:06:29;;;;;;;90.30;35.10;;;;;;;;;;103554;1309;22444;-82
2022/11/24 01:08:56;;;;;;;96.10;33.50;;;;;;;;;;103565;1310;22472;-85
2022/11/24 01:11:24;;;;;;;91.40;33.60;;;;;;;;;;103815;1307;22496;-85
2022/11/24 01:13:53;;;;;;;93.50;34.40;;;;;;;;;;103820;1310;23918;-82
2022/11/24 01:16:19;;;;;;;92.40;33.90;;;;;;;;;;103800;1304;22493;-86
2022/11/24 01:18:46;;;;;;;91.00;34.90;;;;;;;;;;103829;1304;22461;-86
2022/11/24 01:21:13;;;;;;;102.60;36.80;;;;;;;;;;103564;1310;22514;-81
2022/11/24 01:23:40;;;;;;;98.50;35.50;;;;;;;;;;103816;1304;22510;-82
2022/11/24 01:26:08;;;;;;;93.50;33.80;;;;;;;;;;103661;1288;22500;-84
2022/11/24 01:28:35;;;;;;;98.00;36.50;;;;;;;;;;103632;1310;24275;-83
2022/11/24 01:31:03;;;;;;;89.90;34.30;;;;;;;;;;103716;1307;24310;-83
2022/11/24 01:33:30;;;;;;;95.80;35.90;;;;;;;;;;103845;1301;22458;-82
2022/11/24 01:35:57;;;;;;;95.30;35.60;;;;;;;;;;103778;1297;22457;-85
2022/11/24 01:38:25;;;;;;;99.40;34.30;;;;;;;;;;103813;1304;24209;-81
2022/11/24 01:41:00;;;;;;;88.60;35.60;;;;;;;;;;103560;1302;23327;-80
2022/11/24 01:43:27;;;;;;;86.60;33.90;;;;;;;;;;103996;1283;22523;-80
2022/11/24 01:45:54;;;;;;;90.30;33.10;;;;;;;;;;103741;1304;22521;-82
2022/11/24 01:48:31;;;;;;;83.60;33.10;;;;;;;;;;103793;1309;22583;-81
2022/11/24 01:51:04;;;;;;;97.00;35.60;;;;;;;;;;103804;1305;22702;-87
2022/11/24 01:53:31;;;;;;;92.40;33.90;;;;;;;;;;103806;1304;25238;-81
2022/11/24 01:55:58;;;;;;;101.70;35.60;;;;;;;;;;103846;1305;21683;-82
2022/11/24 01:58:27;;;;;;;90.20;34.70;;;;;;;;;;103828;1301;22602;-84
2022/11/24 02:00:54;;;;;;;88.10;33.90;;;;;;;;;;103816;1304;23851;-83
2022/11/24 02:03:23;;;;;;;89.30;33.80;;;;;;;;;;103614;1307;22458;-85
2022/11/24 02:05:51;;;;;;;98.10;34.30;;;;;;;;;;103851;1304;24272;-84
2022/11/24 02:08:27;;;;;;;93.10;36.10;;;;;;;;;;103676;1307;22472;-86
2022/11/24 02:10:54;;;;;;;89.30;35.90;;;;;;;;;;103546;1289;25360;-83
2022/11/24 02:13:21;;;;;;;94.70;35.20;;;;;;;;;;103447;1309;22473;-80
2022/11/24 02:15:48;;;;;;;92.80;35.20;;;;;;;;;;103542;1307;26452;-82
2022/11/24 02:18:15;;;;;;;92.60;35.50;;;;;;;;;;103568;1301;22722;-87
2022/11/24 02:20:41;;;;;;;97.60;34.50;;;;;;;;;;103546;1307;22442;-81
2022/11/24 02:23:11;;;;;;;93.70;33.90;;;;;;;;;;103544;1306;22719;-86
2022/11/24 02:25:41;;;;;;;93.40;35.50;;;;;;;;;;103518;1306;25284;-82
2022/11/24 02:28:10;;;;;;;90.60;35.70;;;;;;;;;;103655;1307;25297;-79
2022/11/24 02:30:37;;;;;;;101.60;36.70;;;;;;;;;;103851;1306;22601;-84
2022/11/24 02:33:04;;;;;;;88.20;34.00;;;;;;;;;;103517;1307;22464;-84
2022/11/24 02:35:30;;;;;;;85.70;34.80;;;;;;;;;;103500;1306;26531;-82
2022/11/24 02:37:57;;;;;;;77.30;33.10;;;;;;;;;;103419;1307;24464;-80
2022/11/24 02:40:25;;;;;;;86.00;33.90;;;;;;;;;;103575;1306;25328;-82
2022/11/24 02:42:54;;;;;;;88.70;33.80;;;;;;;;;;103573;1299;25654;-82
2022/11/24 02:45:21;;;;;;;88.50;34.90;;;;;;;;;;103508;1308;22712;-85
2022/11/24 02:47:48;;;;;;;82.50;32.30;;;;;;;;;;103556;1307;22524;-83
2022/11/24 02:50:15;;;;;;;83.60;31.00;;;;;;;;;;103484;1309;23773;-84
2022/11/24 02:52:41;;;;;;;87.60;32.10;;;;;;;;;;103529;1307;23497;-80
2022/11/24 02:55:08;;;;;;;82.10;31.60;;;;;;;;;;103526;1307;23847;-84
2022/11/24 02:57:35;;;;;;;84.20;32.60;;;;;;;;;;103557;1304;22456;-85
2022/11/24 03:00:02;;;;;;;79.90;33.30;;;;;;;;;;103618;1307;23228;-81
2022/11/24 03:02:29;;;;;;;77.50;31.80;;;;;;;;;;103508;1306;22455;-86
2022/11/24 03:04:56;;;;;;;78.50;30.50;;;;;;;;;;103548;1307;22473;-84
2022/11/24 03:07:22;;;;;;;68.40;29.80;;;;;;;;;;103362;1306;22638;-82
2022/11/24 03:09:49;;;;;;;74.50;31.00;;;;;;;;;;103554;1306;22421;-82
2022/11/24 03:12:16;;;;;;;75.40;28.10;;;;;;;;;;103344;1307;22732;-81
2022/11/24 03:14:42;;;;;;;69.30;27.70;;;;;;;;;;103740;1305;22486;-80
2022/11/24 03:17:09;;;;;;;76.50;29.90;;;;;;;;;;103491;1299;22709;-85
2022/11/24 03:19:36;;;;;;;71.90;30.50;;;;;;;;;;103569;1306;22471;-83
2022/11/24 03:22:02;;;;;;;80.00;31.20;;;;;;;;;;103777;1304;25271;-81
2022/11/24 03:24:29;;;;;;;73.60;30.60;;;;;;;;;;103503;1308;24114;-83
2022/11/24 03:26:56;;;;;;;70.80;30.50;;;;;;;;;;103553;1307;22470;-84
2022/11/24 03:29:22;;;;;;;66.60;29.10;;;;;;;;;;103593;1305;22467;-82
2022/11/24 03:31:49;;;;;;;71.00;30.40;;;;;;;;;;103554;1306;23933;-82
2022/11/24 03:34:16;;;;;;;68.10;30.40;;;;;;;;;;103540;1307;22967;-83
2022/11/24 03:36:42;;;;;;;80.20;31.10;;;;;;;;;;103550;1306;22487;-82
2022/11/24 03:39:09;;;;;;;86.30;32.00;;;;;;;;;;103605;1285;25319;-84
2022/11/24 03:41:36;;;;;;;88.80;31.30;;;;;;;;;;103593;1306;24268;-81
2022/11/24 03:44:02;;;;;;;80.60;31.70;;;;;;;;;;103528;1306;22468;-80
2022/11/24 03:46:29;;;;;;;80.00;32.00;;;;;;;;;;103519;1306;22478;-85
2022/11/24 03:48:56;;;;;;;82.20;32.00;;;;;;;;;;103544;1303;22903;-83
2022/11/24 03:51:22;;;;;;;77.30;31.10;;;;;;;;;;103517;1303;22480;-83
2022/11/24 03:53:49;;;;;;;95.30;33.30;;;;;;;;;;103658;1304;22479;-85
2022/11/24 03:56:16;;;;;;;76.60;32.10;;;;;;;;;;103552;1307;22474;-84
2022/11/24 03:58:42;;;;;;;79.00;33.70;;;;;;;;;;103792;1307;24208;-79
2022/11/24 04:01:09;;;;;;;78.10;32.80;;;;;;;;;;103761;1307;25534;-84
2022/11/24 04:03:36;;;;;;;81.60;33.50;;;;;;;;;;103518;1306;23644;-79
2022/11/24 04:06:02;;;;;;;86.70;33.40;;;;;;;;;;103524;1306;22480;-80
2022/11/24 04:08:29;;;;;;;86.30;32.80;;;;;;;;;;103478;1305;25371;-84
2022/11/24 04:10:56;;;;;;;83.20;32.60;;;;;;;;;;103469;1307;23753;-81
2022/11/24 04:13:23;;;;;;;80.30;32.90;;;;;;;;;;103545;1304;26664;-87
2022/11/24 04:15:50;;;;;;;74.20;32.40;;;;;;;;;;103510;1306;22476;-87
2022/11/24 04:18:17;;;;;;;80.10;31.50;;;;;;;;;;103614;1304;22601;-85
2022/11/24 04:20:44;;;;;;;81.00;34.20;;;;;;;;;;103528;1299;24366;-81
2022/11/24 04:23:11;;;;;;;80.10;33.20;;;;;;;;;;103515;1305;21686;-83
2022/11/24 04:25:38;;;;;;;80.50;33.90;;;;;;;;;;103305;1305;22708;-81
2022/11/24 04:28:04;;;;;;;88.70;34.10;;;;;;;;;;103510;1306;25284;-81
2022/11/24 04:30:31;;;;;;;79.10;32.40;;;;;;;;;;103497;1305;22460;-84
2022/11/24 04:32:58;;;;;;;81.60;32.50;;;;;;;;;;103512;1306;23875;-83
2022/11/24 04:35:25;;;;;;;77.00;32.30;;;;;;;;;;103719;1305;22478;-84
2022/11/24 04:37:54;;;;;;;78.40;32.30;;;;;;;;;;103554;1306;24269;-82
2022/11/24 04:40:21;;;;;;;78.80;32.60;;;;;;;;;;103383;1307;22477;-82
2022/11/24 04:42:53;;;;;;;80.10;32.10;;;;;;;;;;103524;1304;22494;-86
2022/11/24 04:45:20;;;;;;;84.60;32.90;;;;;;;;;;103915;1299;22481;-86
2022/11/24 04:48:03;;;;;;;80.00;32.70;;;;;;;;;;100406;1341;544873;-81
2022/11/24 04:50:29;;;;;;;78.90;33.60;;;;;;;;;;102628;1319;22482;-84
2022/11/24 04:52:56;;;;;;;81.20;32.60;;;;;;;;;;102456;1320;24324;-82
2022/11/24 04:55:23;;;;;;;74.10;30.70;;;;;;;;;;102564;1320;22738;-85
2022/11/24 04:57:49;;;;;;;78.70;31.80;;;;;;;;;;102382;1320;22476;-83
2022/11/24 05:00:16;;;;;;;77.10;33.20;;;;;;;;;;102365;1310;22559;-81
2022/11/24 05:02:43;;;;;;;80.00;31.90;;;;;;;;;;101475;1321;1366575;-84
2022/11/24 05:05:10;;;;;;;81.50;31.60;;;;;;;;;;102511;1316;25078;-84
2022/11/24 05:07:37;;;;;;;82.90;32.20;;;;;;;;;;102644;1312;25322;-81
2022/11/24 05:12:53;;;;;;;74.50;32.10;;;;;;;;;;102777;1308;25361;-82
2022/11/24 05:15:19;;;;;;;74.90;31.80;;;;;;;;;;102561;1317;24228;-80
2022/11/24 05:17:46;;;;;;;84.70;31.50;;;;;;;;;;103708;1307;22671;-82
2022/11/24 05:20:13;;;;;;;90.50;33.30;;;;;;;;;;103413;1308;24444;-82
2022/11/24 05:22:40;;;;;;;85.60;34.70;;;;;;;;;;103472;1308;22591;-86
2022/11/24 05:25:07;;;;;;;93.60;37.20;;;;;;;;;;103339;1306;21989;-81
2022/11/24 05:27:34;;;;;;;91.90;33.60;;;;;;;;;;103549;1305;25297;-83
2022/11/24 05:30:01;;;;;;;79.00;31.30;;;;;;;;;;103862;1304;22992;-80
2022/11/24 05:32:27;;;;;;;76.40;31.20;;;;;;;;;;103461;1307;22475;-80
2022/11/24 05:34:55;;;;;;;89.40;33.40;;;;;;;;;;103561;1298;24317;-86
2022/11/24 05:37:24;;;;;;;85.60;32.40;;;;;;;;;;103494;1307;22484;-85
2022/11/24 05:39:51;;;;;;;88.50;34.40;;;;;;;;;;103487;1307;24238;-81
2022/11/24 05:45:03;;;;;;;98.80;35.20;;;;;;;;;;103467;1306;25304;-84
2022/11/24 05:47:30;;;;;;;91.20;35.10;;;;;;;;;;103366;1305;25463;-82
2022/11/24 05:49:57;;;;;;;88.10;34.60;;;;;;;;;;103519;1307;22502;-80
2022/11/24 05:52:23;;;;;;;95.00;33.90;;;;;;;;;;103675;1305;22478;-81
2022/11/24 05:54:50;;;;;;;84.20;33.40;;;;;;;;;;103549;1307;22476;-82
2022/11/24 05:57:17;;;;;;;85.30;32.20;;;;;;;;;;103549;1306;23381;-81
2022/11/24 05:59:44;;;;;;;93.20;33.70;;;;;;;;;;103411;1305;22481;-86
2022/11/24 06:02:11;;;;;;;92.20;34.70;;;;;;;;;;103462;1293;22525;-83
2022/11/24 06:04:38;;;;;;;99.40;36.30;;;;;;;;;;103307;1305;24402;-81
2022/11/24 06:07:08;;;;;;;90.50;33.90;;;;;;;;;;103480;1306;23134;-82
2022/11/24 06:09:39;;;;;;;79.30;31.90;;;;;;;;;;103489;1307;22475;-85
2022/11/24 06:12:07;;;;;;;86.40;32.20;;;;;;;;;;103525;1306;23496;-81
2022/11/24 06:14:34;;;;;;;81.60;32.10;;;;;;;;;;103813;1306;22461;-85
2022/11/24 06:17:01;;;;;;;73.00;30.00;;;;;;;;;;103497;1307;24183;-82
2022/11/24 06:19:28;;;;;;;83.70;31.40;;;;;;;;;;103453;1305;22485;-80
2022/11/24 06:21:55;;;;;;;94.50;32.70;;;;;;;;;;103321;1305;24296;-86
2022/11/24 06:24:21;;;;;;;83.90;32.50;;;;;;;;;;103403;1306;22486;-85
2022/11/24 06:26:48;;;;;;;76.50;29.20;;;;;;;;;;103492;1306;22475;-82
2022/11/24 06:29:15;;;;;;;73.80;30.00;;;;;;;;;;103501;1307;25302;-83
2022/11/24 06:31:42;;;;;;;54.10;21.30;;;;;;;;;;103529;1283;22638;-85
2022/11/24 06:34:11;;;;;;;72.60;26.90;;;;;;;;;;103565;1307;22451;-80
2022/11/24 06:36:38;;;;;;;74.90;29.30;;;;;;;;;;103549;1307;22475;-81
2022/11/24 06:39:05;;;;;;;79.70;31.30;;;;;;;;;;103542;1298;25275;-83
2022/11/24 06:41:32;;;;;;;75.00;30.60;;;;;;;;;;103583;1292;25431;-80
2022/11/24 06:44:01;;;;;;;81.20;30.40;;;;;;;;;;103326;1291;24316;-81
2022/11/24 06:46:28;;;;;;;83.20;30.30;;;;;;;;;;103551;1295;22595;-81
2022/11/24 06:48:54;;;;;;;79.60;31.20;;;;;;;;;;103258;1280;25363;-85
2022/11/24 06:51:21;;;;;;;79.30;29.90;;;;;;;;;;103354;1280;22482;-83
2022/11/24 06:53:48;;;;;;;78.50;31.00;;;;;;;;;;103109;1303;25423;-80
2022/11/24 06:56:17;;;;;;;79.90;33.10;;;;;;;;;;103704;1291;22461;-81
2022/11/24 06:58:45;;;;;;;77.50;32.10;;;;;;;;;;103874;1300;22596;-83
2022/11/24 07:01:13;;;;;;;81.50;31.30;;;;;;;;;;103537;1283;22646;-80
2022/11/24 07:15:02;;;;;;;81.20;31.90;;;;;;;;;;100350;1342;544845;-83
2022/11/24 07:17:29;;;;;;;87.20;33.60;;;;;;;;;;102439;1318;22510;-80
2022/11/24 07:19:56;;;;;;;85.80;33.80;;;;;;;;;;102404;1318;22476;-82
2022/11/24 07:22:22;;;;;;;92.40;36.20;;;;;;;;;;102422;1314;25235;-81
2022/11/24 07:24:49;;;;;;;87.90;34.10;;;;;;;;;;102918;1305;24157;-80
2022/11/24 07:27:16;;;;;;;99.20;35.60;;;;;;;;;;102334;1298;25448;-81
2022/11/24 07:29:42;;;;;;;88.60;35.00;;;;;;;;;;101472;1314;1411446;-82
2022/11/24 07:32:09;;;;;;;88.90;34.50;;;;;;;;;;102484;1319;22481;-84
2022/11/24 07:34:36;;;;;;;91.60;35.00;;;;;;;;;;102501;1319;25379;-84
2022/11/24 07:37:02;;;;;;;84.50;32.20;;;;;;;;;;102506;1319;25260;-80
2022/11/24 07:39:29;;;;;;;89.90;33.50;;;;;;;;;;102768;1312;22611;-85
2022/11/24 07:41:59;;;;;;;83.10;33.00;;;;;;;;;;103224;1315;22522;-81
2022/11/24 07:44:26;;;;;;;82.00;34.80;;;;;;;;;;102776;1284;22472;-84
2022/11/24 07:46:52;;;;;;;78.90;33.60;;;;;;;;;;102697;1316;25371;-80
2022/11/24 07:49:19;;;;;;;86.40;34.80;;;;;;;;;;102784;1308;26488;-82
2022/11/24 07:51:46;;;;;;;96.30;38.80;;;;;;;;;;102762;1315;25348;-83
2022/11/24 07:54:12;;;;;;;82.40;32.50;;;;;;;;;;103204;1313;22476;-81
2022/11/24 07:56:39;;;;;;;85.20;37.20;;;;;;;;;;103188;1313;22499;-85
2022/11/24 07:59:06;;;;;;;95.90;39.80;;;;;;;;;;103016;1313;22471;-83
2022/11/24 08:01:32;;;;;;;97.40;39.30;;;;;;;;;;103038;1313;22484;-83
2022/11/24 08:04:00;;;;;;;86.70;37.60;;;;;;;;;;103048;1291;25363;-82
2022/11/24 08:06:28;;;;;;;97.10;38.40;;;;;;;;;;103126;1311;25196;-81
2022/11/24 08:08:55;;;;;;;100.70;37.80;;;;;;;;;;103037;1313;22509;-81
2022/11/24 08:11:22;;;;;;;91.70;37.40;;;;;;;;;;103157;1289;22467;-83
2022/11/24 08:13:49;;;;;;;102.10;39.10;;;;;;;;;;103102;1313;22480;-85
2022/11/24 08:16:16;;;;;;;91.80;37.50;;;;;;;;;;103024;1313;23191;-85
2022/11/24 08:18:47;;;;;;;92.60;37.30;;;;;;;;;;103106;1291;22489;-80
2022/11/24 08:21:14;;;;;;;91.40;39.90;;;;;;;;;;103081;1286;25276;-80
2022/11/24 08:23:41;;;;;;;91.20;37.80;;;;;;;;;;102925;1291;22602;-87
2022/11/24 08:26:10;;;;;;;86.40;39.90;;;;;;;;;;103485;1313;22701;-80
2022/11/24 08:28:37;;;;;;;96.60;38.70;;;;;;;;;;103307;1290;23062;-80
2022/11/24 08:31:05;;;;;;;86.00;38.10;;;;;;;;;;103086;1313;24242;-81
2022/11/24 08:33:32;;;;;;;84.50;37.00;;;;;;;;;;102925;1312;22486;-82
2022/11/24 08:36:06;;;;;;;83.40;36.20;;;;;;;;;;102883;1315;22471;-82
2022/11/24 08:38:32;;;;;;;79.70;36.20;;;;;;;;;;102949;1313;22504;-83
2022/11/24 08:41:03;;;;;;;84.70;38.30;;;;;;;;;;102863;1315;22486;-85
2022/11/24 08:43:30;;;;;;;85.90;41.10;;;;;;;;;;102936;1300;22502;-82
2022/11/24 08:46:01;;;;;;;87.40;39.30;;;;;;;;;;102849;1307;22880;-84
2022/11/24 08:48:28;;;;;;;76.70;37.90;;;;;;;;;;103136;1313;22494;-82
2022/11/24 08:50:55;;;;;;;76.80;38.90;;;;;;;;;;103075;1313;22473;-82
2022/11/24 08:53:22;;;;;;;77.00;37.40;;;;;;;;;;102918;1311;24330;-83
2022/11/24 08:55:49;;;;;;;71.90;32.70;;;;;;;;;;102955;1313;24194;-82
2022/11/24 08:58:15;;;;;;;75.30;34.50;;;;;;;;;;102908;1282;24237;-81
2022/11/24 09:00:42;;;;;;;66.60;31.80;;;;;;;;;;102857;1314;22653;-83
2022/11/24 09:03:10;;;;;;;78.40;34.80;;;;;;;;;;102963;1313;22485;-86
2022/11/24 09:05:37;;;;;;;76.50;36.50;;;;;;;;;;106324;1313;22241;-80
2022/11/24 09:08:04;;;;;;;79.00;34.90;;;;;;;;;;106472;1313;22056;-80
2022/11/24 09:10:31;;;;;;;71.30;35.40;;;;;;;;;;106581;1312;22201;-80
2022/11/24 09:12:57;;;;;;;87.60;39.50;;;;;;;;;;106255;1316;22117;-81
2022/11/24 09:15:24;;;;;;;84.00;37.70;;;;;;;;;;106660;1301;22772;-80
2022/11/24 09:17:51;;;;;;;79.80;37.40;;;;;;;;;;106276;1308;22085;-81
2022/11/24 09:20:17;;;;;;;79.10;33.10;;;;;;;;;;106421;1314;22717;-80
2022/11/24 09:22:46;;;;;;;82.40;36.70;;;;;;;;;;106231;1316;22158;-80
2022/11/24 09:25:13;;;;;;;82.00;38.00;;;;;;;;;;106431;1316;21847;-80
2022/11/24 09:27:40;;;;;;;79.60;37.40;;;;;;;;;;106387;1315;22159;-80
2022/11/24 09:30:07;;;;;;;79.80;36.50;;;;;;;;;;106435;1315;22130;-81
2022/11/24 09:32:34;;;;;;;86.50;38.90;;;;;;;;;;106243;1316;22363;-81
2022/11/24 09:35:01;;;;;;;79.50;38.80;;;;;;;;;;106238;1316;22070;-80
2022/11/24 09:37:27;;;;;;;89.10;39.40;;;;;;;;;;106680;1309;22907;-80
2022/11/24 09:39:54;;;;;;;86.20;39.70;;;;;;;;;;106719;1302;22780;-80
2022/11/24 09:42:42;;;;;;;78.90;36.70;;;;;;;;;;106944;1295;22761;-80
2022/11/24 09:45:12;;;;;;;87.40;38.70;;;;;;;;;;106674;1309;22657;-80
2022/11/24 09:47:58;;;;;;;87.40;37.90;;;;;;;;;;106676;1309;22107;-80
2022/11/24 09:50:32;;;;;;;74.90;36.20;;;;;;;;;;106673;1309;21839;-80
2022/11/24 09:53:05;;;;;;;84.90;36.10;;;;;;;;;;106683;1309;22071;-81
2022/11/24 09:55:39;;;;;;;84.80;35.90;;;;;;;;;;106765;1309;22141;-80
2022/11/24 09:58:16;;;;;;;87.20;39.20;;;;;;;;;;106659;1309;22739;-80
2022/11/24 10:00:43;;;;;;;85.00;38.90;;;;;;;;;;106575;1310;22130;-80
2022/11/24 10:03:14;;;;;;;88.30;38.60;;;;;;;;;;106692;1309;22064;-81
2022/11/24 10:05:41;;;;;;;83.60;38.20;;;;;;;;;;106665;1311;22043;-80
2022/11/24 10:08:18;;;;;;;80.10;37.80;;;;;;;;;;106664;1310;22070;-80
2022/11/24 10:10:53;;;;;;;89.90;44.70;;;;;;;;;;106634;1310;22745;-80
2022/11/24 10:13:33;;;;;;;100.30;48.00;;;;;;;;;;106707;1309;22192;-80
2022/11/24 10:16:08;;;;;;;121.90;51.90;;;;;;;;;;106612;1312;22121;-80
2022/11/24 10:18:35;;;;;;;129.20;53.80;;;;;;;;;;106580;1302;22433;-80
2022/11/24 10:21:21;;;;;;;129.60;57.70;;;;;;;;;;106583;1307;22061;-80
2022/11/24 10:23:51;;;;;;;129.50;58.60;;;;;;;;;;106587;1312;22114;-80
2022/11/24 10:26:33;;;;;;;120.40;52.70;;;;;;;;;;106692;1311;22235;-80
2022/11/24 10:29:01;;;;;;;92.90;36.20;;;;;;;;;;106837;1297;22627;-80
2022/11/24 10:31:31;;;;;;;74.40;33.60;;;;;;;;;;106706;1310;22092;-80
2022/11/24 10:34:00;;;;;;;59.10;26.70;;;;;;;;;;106599;1311;22095;-81
2022/11/24 10:36:50;;;;;;;56.00;22.40;;;;;;;;;;106706;1309;22120;-80
2022/11/24 10:39:20;;;;;;;90.80;41.40;;;;;;;;;;106058;1317;22237;-80
2022/11/24 10:42:05;;;;;;;85.50;39.80;;;;;;;;;;105952;1317;22180;-81
2022/11/24 10:44:32;;;;;;;68.30;33.20;;;;;;;;;;106041;1316;22876;-81
2022/11/24 10:46:59;;;;;;;73.40;33.20;;;;;;;;;;106107;1317;22110;-81
2022/11/24 10:49:29;;;;;;;59.30;27.90;;;;;;;;;;105999;1316;22120;-80
2022/11/24 10:52:10;;;;;;;89.20;40.60;;;;;;;;;;106165;1315;22198;-80
2022/11/24 10:54:52;;;;;;;97.00;43.50;;;;;;;;;;106118;1316;22146;-80
2022/11/24 10:57:32;;;;;;;69.20;30.70;;;;;;;;;;105970;1316;22119;-80
2022/11/24 10:59:59;;;;;;;89.10;39.30;;;;;;;;;;106522;1308;22084;-81
2022/11/24 11:02:28;;;;;;;44.10;21.30;;;;;;;;;;106041;1315;22757;-80
2022/11/24 11:04:55;;;;;;;55.20;27.00;;;;;;;;;;106019;1316;22773;-81
2022/11/24 11:07:23;;;;;;;33.30;15.20;;;;;;;;;;106065;1313;22161;-81
2022/11/24 11:10:09;;;;;;;24.10;11.80;;;;;;;;;;105972;1310;22141;-81
2022/11/24 11:12:36;;;;;;;27.90;11.90;;;;;;;;;;105992;1318;22130;-81
2022/11/24 11:15:23;;;;;;;24.90;12.10;;;;;;;;;;105965;1317;22272;-81
2022/11/24 11:17:51;;;;;;;27.10;11.60;;;;;;;;;;106346;1312;22140;-81
2022/11/24 11:20:20;;;;;;;28.70;12.40;;;;;;;;;;106438;1313;22746;-81
2022/11/24 11:22:48;;;;;;;27.50;13.20;;;;;;;;;;106667;1305;22074;-80
2022/11/24 11:25:18;;;;;;;27.40;12.40;;;;;;;;;;106573;1306;21981;-81
2022/11/24 11:27:45;;;;;;;24.10;11.70;;;;;;;;;;106477;1313;21989;-81
2022/11/24 11:30:16;;;;;;;25.00;10.80;;;;;;;;;;106593;1311;22633;-81
2022/11/24 11:32:56;;;;;;;22.70;10.40;;;;;;;;;;106312;1312;22246;-81
2022/11/24 11:35:25;;;;;;;19.40;10.00;;;;;;;;;;106608;1304;22106;-81
2022/11/24 11:37:57;;;;;;;22.80;10.70;;;;;;;;;;106609;1312;22083;-81
2022/11/24 11:40:25;;;;;;;36.10;17.10;;;;;;;;;;106511;1310;22163;-81
2022/11/24 11:42:55;;;;;;;29.10;14.90;;;;;;;;;;106596;1313;22067;-81
2022/11/24 11:45:26;;;;;;;25.30;11.80;;;;;;;;;;106599;1313;22075;-81
2022/11/24 11:47:56;;;;;;;24.50;12.60;;;;;;;;;;106607;1313;22064;-81
2022/11/24 11:50:25;;;;;;;24.20;10.70;;;;;;;;;;106756;1305;22030;-81
2022/11/24 11:53:02;;;;;;;25.20;10.80;;;;;;;;;;106557;1306;22086;-81
2022/11/24 11:55:29;;;;;;;77.60;25.20;;;;;;;;;;106622;1309;22077;-80
2022/11/24 11:58:15;;;;;;;66.60;25.80;;;;;;;;;;106609;1312;22065;-81
2022/11/24 12:00:47;;;;;;;43.80;18.30;;;;;;;;;;106595;1312;22090;-81
2022/11/24 12:03:13;;;;;;;38.90;17.70;;;;;;;;;;106582;1313;22102;-81
2022/11/24 12:05:47;;;;;;;33.00;15.80;;;;;;;;;;106622;1311;22855;-81
2022/11/24 12:08:32;;;;;;;29.20;14.20;;;;;;;;;;106662;1312;22122;-81
2022/11/24 12:11:25;;;;;;;25.50;13.70;;;;;;;;;;106608;1305;22050;-80
2022/11/24 12:13:52;;;;;;;28.00;14.00;;;;;;;;;;106561;1312;22083;-80
2022/11/24 12:16:28;;;;;;;21.00;10.90;;;;;;;;;;106530;1313;21991;-80
2022/11/24 12:18:55;;;;;;;19.80;10.00;;;;;;;;;;106308;1313;22223;-80
2022/11/24 12:21:28;;;;;;;19.70;9.40;;;;;;;;;;106682;1305;22030;-80
2022/11/24 12:23:54;;;;;;;23.00;10.10;;;;;;;;;;106557;1312;22092;-80
2022/11/24 12:26:23;;;;;;;32.30;14.90;;;;;;;;;;106522;1301;22101;-81
2022/11/24 12:29:05;;;;;;;33.00;14.40;;;;;;;;;;106592;1312;22131;-80
2022/11/24 12:31:37;;;;;;;28.30;12.70;;;;;;;;;;106370;1314;22088;-80
2022/11/24 12:34:19;;;;;;;25.60;13.60;;;;;;;;;;106646;1300;22083;-80
2022/11/24 12:36:52;;;;;;;28.90;12.60;;;;;;;;;;106516;1314;22096;-80
2022/11/24 12:39:30;;;;;;;25.30;12.00;;;;;;;;;;106529;1310;22543;-80
2022/11/24 12:42:16;;;;;;;35.60;16.70;;;;;;;;;;106610;1305;22639;-79
2022/11/24 12:44:51;;;;;;;32.00;14.40;;;;;;;;;;106567;1312;23138;-79
2022/11/24 12:47:21;;;;;;;33.40;13.70;;;;;;;;;;106579;1312;21968;-80
2022/11/24 12:50:02;;;;;;;31.90;13.60;;;;;;;;;;106546;1313;21683;-80
2022/11/24 12:52:31;;;;;;;36.50;16.50;;;;;;;;;;106400;1313;22081;-80
2022/11/24 12:54:59;;;;;;;36.70;15.90;;;;;;;;;;106196;1302;22061;-79
2022/11/24 12:57:33;;;;;;;33.00;16.40;;;;;;;;;;106366;1313;22111;-80
2022/11/24 13:00:03;;;;;;;32.60;17.30;;;;;;;;;;106320;1313;22072;-80
2022/11/24 13:02:48;;;;;;;34.00;17.70;;;;;;;;;;106577;1312;22085;-81
2022/11/24 13:05:21;;;;;;;29.40;16.20;;;;;;;;;;106534;1312;22780;-81
2022/11/24 13:07:52;;;;;;;25.30;12.50;;;;;;;;;;106547;1312;22111;-80
2022/11/24 13:10:25;;;;;;;25.00;12.90;;;;;;;;;;106579;1312;22225;-81
2022/11/24 13:12:58;;;;;;;31.00;15.20;;;;;;;;;;106213;1308;22131;-80
2022/11/24 13:15:25;;;;;;;161.30;52.90;;;;;;;;;;106328;1313;22834;-80
2022/11/24 13:17:52;;;;;;;166.60;55.70;;;;;;;;;;106476;1313;22136;-80
2022/11/24 13:20:19;;;;;;;95.70;37.10;;;;;;;;;;106320;1313;22121;-79
2022/11/24 13:22:51;;;;;;;64.60;25.70;;;;;;;;;;106410;1311;22189;-79
2022/11/24 13:25:23;;;;;;;51.10;20.20;;;;;;;;;;106477;1312;22198;-79
2022/11/24 13:27:51;;;;;;;46.10;18.70;;;;;;;;;;106451;1312;22357;-79
2022/11/24 13:30:34;;;;;;;28.20;12.80;;;;;;;;;;106340;1312;22041;-80
2022/11/24 13:33:17;;;;;;;26.00;11.90;;;;;;;;;;106501;1312;22892;-79
2022/11/24 13:36:03;;;;;;;25.90;12.60;;;;;;;;;;106551;1311;22108;-80
2022/11/24 13:38:44;;;;;;;21.60;11.80;;;;;;;;;;106504;1313;22841;-79
2022/11/24 13:41:30;;;;;;;25.70;12.40;;;;;;;;;;106495;1311;22162;-79
2022/11/24 13:44:12;;;;;;;25.90;12.10;;;;;;;;;;106567;1312;22091;-79
2022/11/24 13:46:55;;;;;;;25.10;11.90;;;;;;;;;;106477;1311;22088;-79
2022/11/24 13:49:22;;;;;;;26.60;13.40;;;;;;;;;;106318;1312;22122;-79
2022/11/24 13:51:52;;;;;;;27.60;14.30;;;;;;;;;;106545;1312;26998;-79
2022/11/24 13:54:19;;;;;;;52.10;23.70;;;;;;;;;;106196;1314;22126;-79
2022/11/24 13:56:47;;;;;;;48.60;21.70;;;;;;;;;;106293;1313;22083;-79
2022/11/24 13:59:22;;;;;;;51.30;21.80;;;;;;;;;;106525;1312;22024;-80
2022/11/24 14:01:58;;;;;;;78.50;30.10;;;;;;;;;;106310;1314;22104;-79
2022/11/24 14:04:27;;;;;;;66.00;27.10;;;;;;;;;;106246;1317;22107;-79
2022/11/24 14:06:57;;;;;;;67.30;26.30;;;;;;;;;;106582;1312;22074;-79
2022/11/24 14:09:30;;;;;;;76.00;30.70;;;;;;;;;;106282;1312;22745;-79
2022/11/24 14:12:05;;;;;;;76.20;35.10;;;;;;;;;;106284;1313;22048;-80
2022/11/24 14:14:33;;;;;;;74.10;31.00;;;;;;;;;;106288;1314;22106;-79
2022/11/24 14:17:16;;;;;;;61.70;26.90;;;;;;;;;;106244;1313;22218;-80
2022/11/24 14:19:44;;;;;;;69.90;29.30;;;;;;;;;;106338;1313;22048;-79
2022/11/24 14:22:14;;;;;;;71.30;32.40;;;;;;;;;;106290;1315;21972;-79
2022/11/24 14:24:44;;;;;;;70.40;31.40;;;;;;;;;;106197;1314;22709;-79
2022/11/24 14:27:16;;;;;;;70.90;32.10;;;;;;;;;;106552;1313;22087;-79
2022/11/24 14:30:00;;;;;;;64.80;28.40;;;;;;;;;;106202;1306;22551;-80
2022/11/24 14:32:28;;;;;;;66.20;28.30;;;;;;;;;;106467;1313;21702;-80
2022/11/24 14:34:56;;;;;;;64.80;28.10;;;;;;;;;;106574;1294;22048;-79
2022/11/24 14:37:23;;;;;;;69.30;30.00;;;;;;;;;;106627;1310;22121;-79
2022/11/24 14:39:50;;;;;;;68.20;30.70;;;;;;;;;;106580;1310;22100;-79